Terminal Aerodrome Forecast
Issued by NWS Detroit/Pontiac, MI

Home | Current Version | Previous Version | Text Only | Print | Product List | Glossary On
Versions: 1 2 3 4 5 6 7 8 9 10 11 12 13 14 15 16 17 18 19 20 21 22 23 24 25 26 27 28 29
000
FTUS43 KDTX 191120
TAFDTW
TAF
KDTW 191120Z 1912/2018 34006KT P6SM BKN018 OVC025
     FM191700 34005KT P6SM BKN020
     FM192300 33005KT P6SM SCT020
     FM200600 VRB03KT P6SM BKN020=

USA.gov is the U.S. government's official web portal to all federal, state and local government web resources and services.